Time;durP1;ratioP1;P1;durP2;ratioP2;P2;SDS_P1;SDS_P2;PMS_P1;PMS_P2;Temp;Humidity;BMP_temperature;BMP_pressure;BME280_temperature;BME280_humidity;BME280_pressure;Samples;Min_cycle;Max_cycle;Signal;HPM_P1;HPM_P2
2021/07/21 00:01:19;;;;;;;131.50;20.63;;;;;;;;;;5007767;28;20057;-56
2021/07/21 00:03:46;;;;;;;133.27;21.10;;;;;;;;;;5026352;28;20022;-46
2021/07/21 00:06:13;;;;;;;135.38;19.05;;;;;;;;;;5028713;28;20083;-46
2021/07/21 00:08:40;;;;;;;140.45;19.63;;;;;;;;;;5022264;28;20549;-44
2021/07/21 00:13:54;;;;;;;154.65;21.30;;;;;;;;;;5025596;28;20038;-46
2021/07/21 00:16:37;;;;;;;128.55;19.05;;;;;;;;;;5025947;28;20112;-48
2021/07/21 00:21:51;;;;;;;132.75;18.67;;;;;;;;;;5027040;28;20082;-44
2021/07/21 00:24:18;;;;;;;127.93;20.52;;;;;;;;;;5025807;28;20033;-49
2021/07/21 00:26:45;;;;;;;151.57;22.27;;;;;;;;;;5023586;28;20025;-44
2021/07/21 00:29:12;;;;;;;142.50;20.77;;;;;;;;;;5018008;28;20362;-44
2021/07/21 00:31:40;;;;;;;151.35;21.23;;;;;;;;;;5027158;28;20022;-45
2021/07/21 00:34:09;;;;;;;144.02;20.55;;;;;;;;;;5026366;28;20029;-46
2021/07/21 00:36:36;;;;;;;136.82;21.80;;;;;;;;;;5008280;28;20481;-48
2021/07/21 00:39:04;;;;;;;134.50;20.55;;;;;;;;;;5022182;28;20045;-52
2021/07/21 00:41:32;;;;;;;142.40;22.35;;;;;;;;;;5024716;28;20041;-57
2021/07/21 00:43:59;;;;;;;131.00;21.45;;;;;;;;;;5026168;28;20474;-45
2021/07/21 00:46:26;;;;;;;145.20;22.63;;;;;;;;;;5024745;28;20022;-51
2021/07/21 00:48:53;;;;;;;143.30;21.40;;;;;;;;;;5007796;28;20481;-45
2021/07/21 00:51:20;;;;;;;142.30;22.30;;;;;;;;;;5012084;28;20021;-46
2021/07/21 00:53:47;;;;;;;150.32;21.98;;;;;;;;;;5029241;28;20025;-48
2021/07/21 00:56:15;;;;;;;151.20;21.38;;;;;;;;;;5027240;28;20168;-51
2021/07/21 00:58:43;;;;;;;129.02;22.40;;;;;;;;;;5024770;28;20025;-47
2021/07/21 01:01:10;;;;;;;156.88;23.00;;;;;;;;;;5029197;28;20021;-50
2021/07/21 01:03:37;;;;;;;140.65;23.80;;;;;;;;;;5010228;28;20370;-45
2021/07/21 01:06:04;;;;;;;132.73;23.77;;;;;;;;;;5003767;28;20076;-44
2021/07/21 01:08:31;;;;;;;170.05;25.35;;;;;;;;;;5024600;28;20029;-45
2021/07/21 01:11:04;;;;;;;146.18;25.10;;;;;;;;;;5020769;28;20061;-46
2021/07/21 01:13:35;;;;;;;124.85;21.35;;;;;;;;;;5026540;28;20048;-55
2021/07/21 01:16:09;;;;;;;129.48;20.65;;;;;;;;;;5023800;28;20041;-53
2021/07/21 01:18:39;;;;;;;135.93;23.45;;;;;;;;;;5028133;28;20488;-52
2021/07/21 01:21:24;;;;;;;136.15;20.58;;;;;;;;;;5008563;28;20405;-57
2021/07/21 01:23:57;;;;;;;132.95;22.80;;;;;;;;;;5007935;28;20037;-49
2021/07/21 01:26:27;;;;;;;128.70;22.42;;;;;;;;;;5020409;28;20092;-48
2021/07/21 01:28:58;;;;;;;140.15;23.83;;;;;;;;;;5018803;28;20049;-51
2021/07/21 01:31:29;;;;;;;121.57;21.75;;;;;;;;;;5022831;28;20025;-51
2021/07/21 01:33:57;;;;;;;152.00;23.08;;;;;;;;;;5024307;28;20067;-44
2021/07/21 01:36:31;;;;;;;138.77;22.13;;;;;;;;;;5024477;28;20037;-55
2021/07/21 01:39:04;;;;;;;140.95;22.00;;;;;;;;;;5017570;28;20049;-55
2021/07/21 01:41:35;;;;;;;112.03;20.70;;;;;;;;;;5019099;28;20424;-47
2021/07/21 01:44:09;;;;;;;125.57;20.88;;;;;;;;;;5024443;28;20028;-42
2021/07/21 01:46:37;;;;;;;122.53;22.15;;;;;;;;;;5017911;28;20014;-43
2021/07/21 01:49:05;;;;;;;127.70;19.65;;;;;;;;;;5026029;28;20025;-43
2021/07/21 01:51:34;;;;;;;118.15;21.65;;;;;;;;;;5021515;28;20025;-51
2021/07/21 01:54:02;;;;;;;110.60;19.98;;;;;;;;;;5023936;28;20473;-43
2021/07/21 01:56:33;;;;;;;123.07;21.83;;;;;;;;;;5010026;28;20459;-48
2021/07/21 01:59:01;;;;;;;122.75;18.58;;;;;;;;;;5023741;28;20046;-45
2021/07/21 02:01:29;;;;;;;101.40;18.85;;;;;;;;;;5023846;28;20378;-41
2021/07/21 02:03:57;;;;;;;113.00;20.15;;;;;;;;;;5026970;28;20060;-45
2021/07/21 02:06:28;;;;;;;118.60;19.23;;;;;;;;;;5024526;28;20020;-45
2021/07/21 02:08:57;;;;;;;109.75;18.65;;;;;;;;;;5025239;28;20021;-47
2021/07/21 02:11:25;;;;;;;114.20;18.90;;;;;;;;;;5024679;28;20029;-46
2021/07/21 02:13:57;;;;;;;105.65;18.75;;;;;;;;;;5022496;28;20092;-40
2021/07/21 02:16:24;;;;;;;102.60;18.00;;;;;;;;;;5027301;28;20021;-52
2021/07/21 02:18:53;;;;;;;97.28;18.27;;;;;;;;;;5010875;28;20029;-51
2021/07/21 02:21:20;;;;;;;117.30;19.10;;;;;;;;;;5025195;28;20029;-54
2021/07/21 02:23:48;;;;;;;96.10;17.63;;;;;;;;;;5024646;28;20088;-58
2021/07/21 02:26:17;;;;;;;107.53;16.90;;;;;;;;;;5026810;28;20092;-45
2021/07/21 02:28:44;;;;;;;91.07;16.60;;;;;;;;;;5026249;28;20032;-51
2021/07/21 02:31:14;;;;;;;97.32;18.55;;;;;;;;;;5029065;28;20081;-47
2021/07/21 02:33:41;;;;;;;98.63;16.52;;;;;;;;;;5029187;28;20054;-41
2021/07/21 02:36:08;;;;;;;86.75;16.73;;;;;;;;;;5027516;28;20535;-48
2021/07/21 02:38:35;;;;;;;90.50;15.85;;;;;;;;;;5027163;28;20072;-53
2021/07/21 02:41:02;;;;;;;85.43;16.17;;;;;;;;;;5026027;28;20029;-50
2021/07/21 02:46:07;;;;;;;91.05;15.73;;;;;;;;;;5091269;23;21224;-43
2021/07/21 02:48:34;;;;;;;81.03;16.38;;;;;;;;;;5022647;28;20026;-50
2021/07/21 02:51:06;;;;;;;81.88;15.05;;;;;;;;;;5023649;28;20056;-44
2021/07/21 02:53:34;;;;;;;84.88;15.07;;;;;;;;;;5028122;28;20037;-56
2021/07/21 02:56:07;;;;;;;77.65;14.90;;;;;;;;;;5025682;28;20032;-57
2021/07/21 02:59:00;;;;;;;75.60;14.82;;;;;;;;;;5024491;28;20025;-57
2021/07/21 03:01:29;;;;;;;67.90;13.65;;;;;;;;;;5015795;28;20029;-52
2021/07/21 03:03:56;;;;;;;75.72;15.32;;;;;;;;;;5030226;28;20030;-41
2021/07/21 03:06:26;;;;;;;70.70;14.35;;;;;;;;;;5026847;28;20508;-43
2021/07/21 03:08:54;;;;;;;66.88;13.43;;;;;;;;;;5021312;28;20041;-45
2021/07/21 03:11:21;;;;;;;67.97;13.95;;;;;;;;;;5015526;28;20041;-52
2021/07/21 03:14:02;;;;;;;71.60;15.23;;;;;;;;;;5025260;28;20488;-43
2021/07/21 03:16:31;;;;;;;63.35;14.18;;;;;;;;;;5012600;28;20076;-50
2021/07/21 03:19:02;;;;;;;57.65;13.35;;;;;;;;;;5020476;28;20036;-46
2021/07/21 03:21:30;;;;;;;57.03;12.83;;;;;;;;;;5022131;28;20021;-45
2021/07/21 03:23:57;;;;;;;60.08;12.73;;;;;;;;;;5027431;28;20381;-51
2021/07/21 03:26:25;;;;;;;73.72;14.50;;;;;;;;;;5026150;28;20050;-43
2021/07/21 03:28:53;;;;;;;62.17;12.43;;;;;;;;;;5025685;28;20036;-43
2021/07/21 03:31:20;;;;;;;55.45;12.80;;;;;;;;;;5025164;28;20104;-50
2021/07/21 03:33:50;;;;;;;58.58;13.50;;;;;;;;;;5028431;28;20049;-44
2021/07/21 03:36:18;;;;;;;58.50;11.63;;;;;;;;;;5022733;28;20038;-45
2021/07/21 03:38:45;;;;;;;55.20;12.93;;;;;;;;;;5025200;28;20112;-41
2021/07/21 03:41:12;;;;;;;60.00;13.13;;;;;;;;;;5023595;28;20033;-46
2021/07/21 03:43:40;;;;;;;56.97;12.60;;;;;;;;;;5026393;28;20029;-46
2021/07/21 03:46:07;;;;;;;61.10;13.97;;;;;;;;;;4823325;28;5845210;-47
2021/07/21 03:48:34;;;;;;;75.85;12.50;;;;;;;;;;5021223;28;20033;-43
2021/07/21 03:51:01;;;;;;;60.17;12.30;;;;;;;;;;5021823;28;20029;-44
2021/07/21 03:53:31;;;;;;;52.97;11.55;;;;;;;;;;5030416;28;20034;-40
2021/07/21 03:55:58;;;;;;;51.63;12.43;;;;;;;;;;5031918;28;20028;-48
2021/07/21 03:58:25;;;;;;;59.33;12.00;;;;;;;;;;5030906;28;20030;-42
2021/07/21 04:00:55;;;;;;;59.55;11.32;;;;;;;;;;5031672;28;20028;-46
2021/07/21 04:03:23;;;;;;;50.65;11.65;;;;;;;;;;5029828;28;20067;-42
2021/07/21 04:05:50;;;;;;;58.85;12.95;;;;;;;;;;5030283;28;20531;-44
2021/07/21 04:08:18;;;;;;;56.33;12.23;;;;;;;;;;5032508;28;20025;-48
2021/07/21 04:10:45;;;;;;;57.58;12.63;;;;;;;;;;5032543;28;20014;-43
2021/07/21 04:13:12;;;;;;;58.67;11.00;;;;;;;;;;5028192;28;20067;-50
2021/07/21 04:15:39;;;;;;;62.33;11.48;;;;;;;;;;5032811;28;20060;-44
2021/07/21 04:18:06;;;;;;;49.95;10.95;;;;;;;;;;5032038;28;20176;-47
2021/07/21 04:20:34;;;;;;;60.20;11.23;;;;;;;;;;5032643;28;20021;-49
2021/07/21 04:23:01;;;;;;;49.33;11.85;;;;;;;;;;5028273;28;20048;-47
2021/07/21 04:25:28;;;;;;;52.78;12.27;;;;;;;;;;5032544;28;20049;-50
2021/07/21 04:27:55;;;;;;;58.35;10.65;;;;;;;;;;5032066;28;20021;-41
2021/07/21 04:30:22;;;;;;;59.67;11.40;;;;;;;;;;5032275;28;20029;-48
2021/07/21 04:32:50;;;;;;;53.63;12.35;;;;;;;;;;5027379;28;20437;-46
2021/07/21 04:35:17;;;;;;;59.42;13.18;;;;;;;;;;5032615;28;20028;-50
2021/07/21 04:37:45;;;;;;;60.38;12.05;;;;;;;;;;5031319;28;20092;-43
2021/07/21 04:40:13;;;;;;;63.72;12.85;;;;;;;;;;5032001;28;20018;-46
2021/07/21 04:42:40;;;;;;;60.00;13.35;;;;;;;;;;5027301;28;20542;-47
2021/07/21 04:45:07;;;;;;;54.67;12.32;;;;;;;;;;5029336;28;20124;-44
2021/07/21 04:47:38;;;;;;;54.90;12.18;;;;;;;;;;5031785;28;20427;-47
2021/07/21 04:50:07;;;;;;;62.95;13.50;;;;;;;;;;5030903;28;20022;-47
2021/07/21 04:52:34;;;;;;;64.38;12.35;;;;;;;;;;5027702;28;20044;-45
2021/07/21 04:55:01;;;;;;;54.75;12.38;;;;;;;;;;5032133;28;20365;-46
2021/07/21 04:57:28;;;;;;;53.47;12.30;;;;;;;;;;5032108;28;20083;-46
2021/07/21 04:59:55;;;;;;;57.35;13.10;;;;;;;;;;5030399;28;20109;-50
2021/07/21 05:02:22;;;;;;;55.10;12.60;;;;;;;;;;5030286;28;20071;-46
2021/07/21 05:04:49;;;;;;;52.17;13.13;;;;;;;;;;5029174;28;20021;-47
2021/07/21 05:07:17;;;;;;;67.90;13.40;;;;;;;;;;5032115;28;20017;-45
2021/07/21 05:09:45;;;;;;;66.75;14.88;;;;;;;;;;5031433;28;20021;-47
2021/07/21 05:12:13;;;;;;;61.38;13.05;;;;;;;;;;5031535;28;20392;-51
2021/07/21 05:14:43;;;;;;;57.15;13.27;;;;;;;;;;5026685;28;20024;-50
2021/07/21 05:17:10;;;;;;;66.20;13.02;;;;;;;;;;5032024;28;20079;-51
2021/07/21 05:19:37;;;;;;;61.88;13.25;;;;;;;;;;5031328;28;20014;-50
2021/07/21 05:22:04;;;;;;;63.78;13.80;;;;;;;;;;5031615;28;20104;-54
2021/07/21 05:24:33;;;;;;;55.55;14.20;;;;;;;;;;5027269;28;20021;-45
2021/07/21 05:29:43;;;;;;;47.47;12.80;;;;;;;;;;5116170;22;20115;-47
2021/07/21 05:32:10;;;;;;;53.63;13.23;;;;;;;;;;5040139;28;20017;-49
2021/07/21 05:34:37;;;;;;;60.50;13.70;;;;;;;;;;5023657;28;20021;-46
2021/07/21 05:37:05;;;;;;;54.58;13.73;;;;;;;;;;5040403;28;20419;-49
2021/07/21 05:39:32;;;;;;;57.95;12.75;;;;;;;;;;5021468;28;20025;-46
2021/07/21 05:41:59;;;;;;;58.55;14.43;;;;;;;;;;5031775;28;20033;-46
2021/07/21 05:44:26;;;;;;;68.38;14.02;;;;;;;;;;5037718;28;20017;-47
2021/07/21 05:46:53;;;;;;;55.10;13.48;;;;;;;;;;5052247;28;20448;-47
2021/07/21 05:49:21;;;;;;;57.28;12.63;;;;;;;;;;5051352;28;20422;-45
2021/07/21 05:51:48;;;;;;;60.63;14.15;;;;;;;;;;5051755;28;20104;-46
2021/07/21 05:54:15;;;;;;;62.53;14.40;;;;;;;;;;5047101;28;20025;-45
2021/07/21 05:56:42;;;;;;;50.15;13.13;;;;;;;;;;5034472;28;20036;-47
2021/07/21 05:59:09;;;;;;;57.90;13.23;;;;;;;;;;5051434;28;20025;-48
2021/07/21 06:01:36;;;;;;;53.22;14.60;;;;;;;;;;5051560;28;20085;-48
2021/07/21 06:04:05;;;;;;;58.83;13.80;;;;;;;;;;5048084;28;20500;-45
2021/07/21 06:06:32;;;;;;;55.50;14.30;;;;;;;;;;5050722;28;20021;-46
2021/07/21 06:08:59;;;;;;;58.72;13.80;;;;;;;;;;5051530;28;20025;-48
2021/07/21 06:11:26;;;;;;;50.88;12.75;;;;;;;;;;5033587;28;20510;-49
2021/07/21 06:13:57;;;;;;;60.40;14.38;;;;;;;;;;5050876;28;20025;-46
2021/07/21 06:16:25;;;;;;;55.42;13.65;;;;;;;;;;5048086;28;20021;-48
2021/07/21 06:18:52;;;;;;;51.47;14.13;;;;;;;;;;5051606;28;20111;-49
2021/07/21 06:21:21;;;;;;;53.38;14.35;;;;;;;;;;5051420;28;20013;-49
2021/07/21 06:23:48;;;;;;;55.00;13.55;;;;;;;;;;5051463;28;20025;-48
2021/07/21 06:26:15;;;;;;;52.60;14.00;;;;;;;;;;5047293;28;20497;-50
2021/07/21 06:28:43;;;;;;;55.35;13.38;;;;;;;;;;5039393;28;20084;-47
2021/07/21 06:31:10;;;;;;;55.50;13.68;;;;;;;;;;5031336;28;20468;-46
2021/07/21 06:33:37;;;;;;;54.65;13.50;;;;;;;;;;5031458;28;20052;-47
2021/07/21 06:36:04;;;;;;;53.00;13.48;;;;;;;;;;5026292;28;20028;-47
2021/07/21 06:38:31;;;;;;;54.75;13.60;;;;;;;;;;5031542;28;20079;-46
2021/07/21 06:40:58;;;;;;;52.67;14.10;;;;;;;;;;5031497;28;20021;-46
2021/07/21 06:43:25;;;;;;;55.15;13.32;;;;;;;;;;5031211;28;20032;-47
2021/07/21 06:45:52;;;;;;;51.70;13.13;;;;;;;;;;5026380;28;20018;-48
2021/07/21 06:48:19;;;;;;;56.70;13.80;;;;;;;;;;5031480;28;20022;-48
2021/07/21 06:50:46;;;;;;;47.05;12.25;;;;;;;;;;5031374;28;20045;-53
2021/07/21 06:53:13;;;;;;;53.88;14.30;;;;;;;;;;5031250;28;20532;-53
2021/07/21 06:55:40;;;;;;;49.75;13.52;;;;;;;;;;5026684;28;21368;-50
2021/07/21 06:58:07;;;;;;;49.70;13.20;;;;;;;;;;5030005;28;20389;-58
2021/07/21 07:00:34;;;;;;;50.75;12.48;;;;;;;;;;5032407;28;20037;-52
2021/07/21 07:03:01;;;;;;;51.95;14.20;;;;;;;;;;5035040;28;20041;-56
2021/07/21 07:05:28;;;;;;;48.05;14.05;;;;;;;;;;5031942;28;20039;-56
2021/07/21 07:07:55;;;;;;;55.92;14.48;;;;;;;;;;5033052;28;20022;-51
2021/07/21 07:10:22;;;;;;;55.88;13.50;;;;;;;;;;5034959;28;20018;-57
2021/07/21 07:12:49;;;;;;;51.00;14.43;;;;;;;;;;5034683;28;20050;-54
2021/07/21 07:15:16;;;;;;;46.78;13.05;;;;;;;;;;5034424;28;20021;-47
2021/07/21 07:17:46;;;;;;;47.65;13.30;;;;;;;;;;5030037;28;20053;-48
2021/07/21 07:20:13;;;;;;;52.42;14.07;;;;;;;;;;5033338;28;20472;-46
2021/07/21 07:22:40;;;;;;;50.55;13.50;;;;;;;;;;5034373;28;20029;-46
2021/07/21 07:25:07;;;;;;;45.63;13.65;;;;;;;;;;5034485;28;20492;-49
2021/07/21 07:27:34;;;;;;;43.22;14.32;;;;;;;;;;5029183;28;20037;-46
2021/07/21 07:30:01;;;;;;;45.53;13.68;;;;;;;;;;5034429;28;20120;-49
2021/07/21 07:32:28;;;;;;;43.65;13.68;;;;;;;;;;5034525;28;20037;-51
2021/07/21 07:34:55;;;;;;;41.10;13.50;;;;;;;;;;5034225;28;20424;-46
2021/07/21 07:37:22;;;;;;;39.90;13.65;;;;;;;;;;5029329;28;20423;-51
2021/07/21 07:39:49;;;;;;;40.83;13.65;;;;;;;;;;5034693;28;20021;-48
2021/07/21 07:42:16;;;;;;;49.70;14.43;;;;;;;;;;5034177;28;20025;-47
2021/07/21 07:44:43;;;;;;;58.05;14.88;;;;;;;;;;5033705;28;20534;-46
2021/07/21 07:47:10;;;;;;;43.00;13.30;;;;;;;;;;5029596;28;20068;-50
2021/07/21 07:49:37;;;;;;;49.15;14.40;;;;;;;;;;5033990;28;20022;-49
2021/07/21 07:52:04;;;;;;;49.35;13.98;;;;;;;;;;5032668;28;20058;-53
2021/07/21 07:54:31;;;;;;;43.00;13.93;;;;;;;;;;5034138;28;20029;-51
2021/07/21 07:56:58;;;;;;;44.05;13.75;;;;;;;;;;5028929;28;20033;-50
2021/07/21 07:59:25;;;;;;;42.55;13.52;;;;;;;;;;5033498;28;20025;-47
2021/07/21 08:01:52;;;;;;;43.00;13.15;;;;;;;;;;5034167;28;20026;-49
2021/07/21 08:04:20;;;;;;;39.70;13.88;;;;;;;;;;5033891;28;20030;-44
2021/07/21 08:06:46;;;;;;;47.08;14.77;;;;;;;;;;5031541;28;20025;-48
2021/07/21 08:09:13;;;;;;;40.30;13.77;;;;;;;;;;5031244;28;20112;-49
2021/07/21 08:11:45;;;;;;;35.78;13.68;;;;;;;;;;5032496;28;20017;-44
2021/07/21 08:14:14;;;;;;;40.65;14.18;;;;;;;;;;5033419;28;20029;-51
2021/07/21 08:16:41;;;;;;;45.92;14.25;;;;;;;;;;5033410;28;20477;-57
2021/07/21 08:19:08;;;;;;;50.50;15.75;;;;;;;;;;5028985;28;20030;-45
2021/07/21 08:21:35;;;;;;;37.38;14.00;;;;;;;;;;5032310;28;20025;-47
2021/07/21 08:24:03;;;;;;;38.60;14.00;;;;;;;;;;5033401;28;20018;-46
2021/07/21 08:26:30;;;;;;;46.33;14.27;;;;;;;;;;5032144;28;20099;-57
2021/07/21 08:28:57;;;;;;;43.80;14.68;;;;;;;;;;5028034;28;20033;-57
2021/07/21 08:31:24;;;;;;;37.25;14.27;;;;;;;;;;5033340;28;20385;-50
2021/07/21 08:33:51;;;;;;;42.70;14.25;;;;;;;;;;5033363;28;20018;-51
2021/07/21 08:36:18;;;;;;;44.42;15.48;;;;;;;;;;5032976;28;20028;-53
2021/07/21 08:38:45;;;;;;;40.55;14.60;;;;;;;;;;5028135;28;20032;-51
2021/07/21 08:41:12;;;;;;;40.28;14.32;;;;;;;;;;5033551;28;20496;-47
2021/07/21 08:43:40;;;;;;;39.92;14.77;;;;;;;;;;5032581;28;20476;-47
2021/07/21 08:46:07;;;;;;;49.13;15.65;;;;;;;;;;5031554;28;20475;-45
2021/07/21 08:48:34;;;;;;;43.25;15.45;;;;;;;;;;5028312;28;20053;-45
2021/07/21 08:51:01;;;;;;;45.95;15.80;;;;;;;;;;5033174;28;20018;-45
2021/07/21 08:53:30;;;;;;;41.47;14.05;;;;;;;;;;5032825;28;20030;-45
2021/07/21 08:55:57;;;;;;;36.70;14.20;;;;;;;;;;5032882;28;20049;-47
2021/07/21 08:58:25;;;;;;;42.28;15.02;;;;;;;;;;5027726;28;20091;-45
2021/07/21 09:00:52;;;;;;;46.40;16.58;;;;;;;;;;5032802;28;20021;-46
2021/07/21 09:03:21;;;;;;;42.60;15.02;;;;;;;;;;5032840;28;20022;-47
2021/07/21 09:05:51;;;;;;;38.63;15.32;;;;;;;;;;5032658;28;20018;-46
2021/07/21 09:08:18;;;;;;;41.80;15.25;;;;;;;;;;5029405;28;20033;-45
2021/07/21 09:10:46;;;;;;;38.30;14.20;;;;;;;;;;5030704;28;20025;-47
2021/07/21 09:13:14;;;;;;;39.80;15.13;;;;;;;;;;5032629;28;20030;-47
2021/07/21 09:15:44;;;;;;;37.67;14.27;;;;;;;;;;5032057;28;20036;-44
2021/07/21 09:18:12;;;;;;;35.88;14.40;;;;;;;;;;5031985;28;20064;-45
2021/07/21 09:20:43;;;;;;;42.38;15.15;;;;;;;;;;5028248;28;20021;-45
2021/07/21 09:23:11;;;;;;;41.43;15.30;;;;;;;;;;5031107;28;20022;-45
2021/07/21 09:25:38;;;;;;;37.40;15.00;;;;;;;;;;5030644;28;20029;-47
2021/07/21 09:28:09;;;;;;;37.42;15.02;;;;;;;;;;5031555;28;20508;-48
2021/07/21 09:30:38;;;;;;;38.88;15.57;;;;;;;;;;5027546;28;20028;-49
2021/07/21 09:33:06;;;;;;;37.78;15.07;;;;;;;;;;5032116;28;20025;-47
2021/07/21 09:35:35;;;;;;;42.30;14.93;;;;;;;;;;5032117;28;20076;-46
2021/07/21 09:38:05;;;;;;;44.95;15.90;;;;;;;;;;5031768;28;20029;-47
2021/07/21 09:40:32;;;;;;;41.20;14.77;;;;;;;;;;5024718;28;20022;-48
2021/07/21 09:42:59;;;;;;;36.78;15.65;;;;;;;;;;5032169;28;20025;-45
2021/07/21 09:45:27;;;;;;;42.58;15.75;;;;;;;;;;5031888;28;20009;-46
2021/07/21 09:47:56;;;;;;;35.22;15.77;;;;;;;;;;5031735;28;20018;-49
2021/07/21 09:50:24;;;;;;;39.47;15.20;;;;;;;;;;5027175;28;20059;-47
2021/07/21 09:52:56;;;;;;;34.90;14.40;;;;;;;;;;5031760;28;20025;-49
2021/07/21 09:55:24;;;;;;;36.63;15.02;;;;;;;;;;5032127;28;20155;-47
2021/07/21 09:57:59;;;;;;;36.65;15.05;;;;;;;;;;5031502;28;20037;-49
2021/07/21 10:00:27;;;;;;;41.70;15.80;;;;;;;;;;5026970;28;20479;-50
2021/07/21 10:03:06;;;;;;;35.63;15.60;;;;;;;;;;5032015;28;20029;-48
2021/07/21 10:05:33;;;;;;;41.65;15.18;;;;;;;;;;5031805;28;20444;-47
2021/07/21 10:08:03;;;;;;;34.20;15.48;;;;;;;;;;5030146;28;20117;-47
2021/07/21 10:10:32;;;;;;;34.92;14.77;;;;;;;;;;5027072;28;20025;-47
2021/07/21 10:12:59;;;;;;;38.80;14.90;;;;;;;;;;5031776;28;20388;-46
2021/07/21 10:15:26;;;;;;;32.10;14.23;;;;;;;;;;5031618;28;20374;-47
2021/07/21 10:18:06;;;;;;;34.28;15.05;;;;;;;;;;5031139;28;20155;-47
2021/07/21 10:20:33;;;;;;;40.28;15.73;;;;;;;;;;5026893;28;20025;-46
2021/07/21 10:23:00;;;;;;;34.05;15.50;;;;;;;;;;5032131;28;20025;-49
2021/07/21 10:25:28;;;;;;;37.33;15.50;;;;;;;;;;5031441;28;20381;-46
2021/07/21 10:27:57;;;;;;;36.05;14.95;;;;;;;;;;5030954;28;20366;-48
2021/07/21 10:30:25;;;;;;;36.10;15.45;;;;;;;;;;5027397;28;20057;-46
2021/07/21 10:32:52;;;;;;;33.13;14.15;;;;;;;;;;5029849;28;20043;-48
2021/07/21 10:35:20;;;;;;;36.90;14.30;;;;;;;;;;5032610;28;20021;-47
2021/07/21 10:37:48;;;;;;;38.42;15.38;;;;;;;;;;5035045;28;20124;-49
2021/07/21 10:40:18;;;;;;;35.45;15.57;;;;;;;;;;5034145;28;20112;-49
2021/07/21 10:42:46;;;;;;;38.22;15.30;;;;;;;;;;5032623;28;20040;-56
2021/07/21 10:45:17;;;;;;;32.78;15.02;;;;;;;;;;5035004;28;20026;-54
2021/07/21 10:47:45;;;;;;;36.55;14.48;;;;;;;;;;5035008;28;20057;-51
2021/07/21 10:50:27;;;;;;;34.90;15.80;;;;;;;;;;5035068;28;20013;-47
2021/07/21 10:53:14;;;;;;;36.70;14.75;;;;;;;;;;5031608;28;20076;-46
2021/07/21 10:55:46;;;;;;;34.95;14.80;;;;;;;;;;5034846;28;20104;-46
2021/07/21 11:00:58;;;;;;;35.55;14.88;;;;;;;;;;5032239;28;20041;-55
2021/07/21 11:03:31;;;;;;;36.58;15.60;;;;;;;;;;5033426;28;20381;-56
2021/07/21 11:06:07;;;;;;;34.97;14.70;;;;;;;;;;5035157;28;20018;-59
2021/07/21 11:08:45;;;;;;;34.85;16.33;;;;;;;;;;5034278;28;20083;-58
2021/07/21 11:11:22;;;;;;;31.65;14.00;;;;;;;;;;5031999;28;20110;-54
2021/07/21 11:14:00;;;;;;;32.85;14.40;;;;;;;;;;5034082;28;20100;-51
2021/07/21 11:16:40;;;;;;;34.67;15.15;;;;;;;;;;5034902;28;20056;-54
2021/07/21 11:19:25;;;;;;;33.50;15.85;;;;;;;;;;5034128;28;20029;-52
2021/07/21 11:21:59;;;;;;;35.15;15.52;;;;;;;;;;5029737;28;20026;-53
2021/07/21 11:24:30;;;;;;;34.10;15.07;;;;;;;;;;5034677;28;20025;-52
2021/07/21 11:26:58;;;;;;;31.92;13.70;;;;;;;;;;5034671;28;20021;-46
2021/07/21 13:34:34;;;;;;;45.40;15.07;;;;;;;;;;5109464;27;20814;-44
2021/07/21 13:37:09;;;;;;;36.15;13.93;;;;;;;;;;5078316;28;20051;-48
2021/07/21 13:39:42;;;;;;;38.92;13.95;;;;;;;;;;5082870;28;20036;-45
2021/07/21 13:42:18;;;;;;;38.33;14.85;;;;;;;;;;5076760;28;20057;-44
2021/07/21 13:44:46;;;;;;;46.03;15.70;;;;;;;;;;5079268;28;20078;-45
2021/07/21 13:47:13;;;;;;;40.53;14.45;;;;;;;;;;5076190;28;20452;-49
2021/07/21 13:49:41;;;;;;;39.55;14.90;;;;;;;;;;5079962;28;20077;-46
2021/07/21 13:52:10;;;;;;;37.22;14.15;;;;;;;;;;5079752;28;20028;-48
2021/07/21 13:54:38;;;;;;;47.53;13.50;;;;;;;;;;5078303;28;20043;-45
2021/07/21 13:57:05;;;;;;;38.97;13.35;;;;;;;;;;5076069;28;20389;-42
2021/07/21 13:59:33;;;;;;;42.80;14.18;;;;;;;;;;5067344;28;20563;-45
2021/07/21 14:02:00;;;;;;;38.88;13.93;;;;;;;;;;5078944;28;20038;-41
2021/07/21 14:04:28;;;;;;;38.97;13.50;;;;;;;;;;5077212;28;20021;-42
2021/07/21 14:06:55;;;;;;;36.72;13.15;;;;;;;;;;5078104;28;20095;-42
2021/07/21 14:09:22;;;;;;;35.70;12.98;;;;;;;;;;5077456;28;20027;-44
2021/07/21 14:11:50;;;;;;;34.00;12.38;;;;;;;;;;5075831;28;20020;-41
2021/07/21 14:14:17;;;;;;;42.92;12.82;;;;;;;;;;5078854;28;20533;-43
2021/07/21 14:16:45;;;;;;;38.03;13.70;;;;;;;;;;5075379;28;20025;-43
2021/07/21 14:19:13;;;;;;;56.03;14.75;;;;;;;;;;5081842;28;20024;-44
2021/07/21 14:21:40;;;;;;;47.45;13.63;;;;;;;;;;5073800;28;20025;-47
2021/07/21 14:24:08;;;;;;;62.97;15.35;;;;;;;;;;5053597;28;20060;-50
2021/07/21 14:26:35;;;;;;;61.72;14.55;;;;;;;;;;5055009;28;20119;-45
2021/07/21 14:29:03;;;;;;;71.95;13.93;;;;;;;;;;5056930;28;20025;-41
2021/07/21 14:31:30;;;;;;;69.88;14.57;;;;;;;;;;5056584;28;20082;-43
2021/07/21 14:33:57;;;;;;;53.20;13.50;;;;;;;;;;5049392;28;20854;-43
2021/07/21 14:36:25;;;;;;;69.80;13.70;;;;;;;;;;5046066;28;20477;-44
2021/07/21 14:38:54;;;;;;;62.03;13.20;;;;;;;;;;5044923;28;20021;-43
2021/07/21 14:41:22;;;;;;;82.35;13.98;;;;;;;;;;5042926;28;20381;-43
2021/07/21 14:43:49;;;;;;;58.53;15.27;;;;;;;;;;5044865;28;20018;-42
2021/07/21 14:46:17;;;;;;;66.88;15.05;;;;;;;;;;5043025;28;20384;-41
2021/07/21 14:48:44;;;;;;;43.47;12.95;;;;;;;;;;5044565;28;20025;-41
2021/07/21 14:51:11;;;;;;;56.78;13.57;;;;;;;;;;5043988;28;20151;-44
2021/07/21 14:53:38;;;;;;;77.15;14.27;;;;;;;;;;5044247;28;20047;-44
2021/07/21 14:56:05;;;;;;;67.72;12.65;;;;;;;;;;5033616;28;20025;-50
2021/07/21 14:58:32;;;;;;;79.70;11.85;;;;;;;;;;5044846;28;20476;-45
2021/07/21 15:00:59;;;;;;;86.45;12.05;;;;;;;;;;5044324;28;20108;-46
2021/07/21 15:03:26;;;;;;;85.88;11.57;;;;;;;;;;5037672;28;20067;-56
2021/07/21 15:05:54;;;;;;;61.85;10.13;;;;;;;;;;5042429;28;20476;-41
2021/07/21 15:08:22;;;;;;;66.10;10.10;;;;;;;;;;5049109;28;20037;-42
2021/07/21 15:10:49;;;;;;;56.10;9.05;;;;;;;;;;5040939;28;20082;-52
2021/07/21 15:13:17;;;;;;;52.20;8.43;;;;;;;;;;5042010;28;20543;-48
2021/07/21 15:15:45;;;;;;;59.80;8.85;;;;;;;;;;5042011;28;20016;-53
2021/07/21 15:18:12;;;;;;;61.75;9.60;;;;;;;;;;5042670;28;20066;-49
2021/07/21 15:20:39;;;;;;;41.42;8.35;;;;;;;;;;5042382;28;20013;-45
2021/07/21 15:23:07;;;;;;;45.28;9.02;;;;;;;;;;5042018;28;20033;-49
2021/07/21 15:25:34;;;;;;;52.25;11.35;;;;;;;;;;5041325;28;20100;-46
2021/07/21 15:28:01;;;;;;;49.22;9.63;;;;;;;;;;5041088;28;20029;-48
2021/07/21 15:30:28;;;;;;;45.38;9.30;;;;;;;;;;5043682;28;20029;-46
2021/07/21 15:32:55;;;;;;;52.80;10.10;;;;;;;;;;5052179;28;20119;-46
2021/07/21 15:35:22;;;;;;;66.78;8.95;;;;;;;;;;5047003;28;20472;-45
2021/07/21 15:37:49;;;;;;;71.30;10.02;;;;;;;;;;5038696;28;20094;-46
2021/07/21 15:40:18;;;;;;;47.38;8.70;;;;;;;;;;5039416;28;20053;-44
2021/07/21 15:42:45;;;;;;;51.97;9.27;;;;;;;;;;5041710;28;20025;-46
2021/07/21 15:45:12;;;;;;;44.03;9.23;;;;;;;;;;5042625;28;20033;-58
2021/07/21 15:47:41;;;;;;;43.10;8.73;;;;;;;;;;5050943;28;20013;-47
2021/07/21 15:50:09;;;;;;;46.92;8.20;;;;;;;;;;5047357;28;20092;-41
2021/07/21 15:52:37;;;;;;;45.40;8.50;;;;;;;;;;5051824;28;20373;-44
2021/07/21 15:55:05;;;;;;;40.03;7.25;;;;;;;;;;5049079;28;20473;-46
2021/07/21 15:57:32;;;;;;;43.22;7.88;;;;;;;;;;5040798;28;20393;-54
2021/07/21 16:00:03;;;;;;;38.60;6.68;;;;;;;;;;5040385;28;20117;-44
2021/07/21 16:02:32;;;;;;;33.97;7.78;;;;;;;;;;5037885;28;20393;-46
2021/07/21 16:04:59;;;;;;;27.02;6.63;;;;;;;;;;5044113;28;20381;-45
2021/07/21 16:07:26;;;;;;;39.47;7.07;;;;;;;;;;5049101;28;20033;-48
2021/07/21 16:09:53;;;;;;;31.40;7.22;;;;;;;;;;5046426;28;20136;-42
2021/07/21 16:12:20;;;;;;;36.25;7.03;;;;;;;;;;5044700;28;20372;-50
2021/07/21 16:14:47;;;;;;;39.13;6.97;;;;;;;;;;5035646;28;20018;-46
2021/07/21 16:17:14;;;;;;;43.75;8.10;;;;;;;;;;5041627;28;20476;-43
2021/07/21 16:19:41;;;;;;;34.70;8.13;;;;;;;;;;5050657;28;20028;-46
2021/07/21 16:22:08;;;;;;;33.65;7.38;;;;;;;;;;5045598;28;20162;-45
2021/07/21 16:24:35;;;;;;;39.78;6.80;;;;;;;;;;5038963;28;20082;-47
2021/07/21 16:27:04;;;;;;;38.05;6.80;;;;;;;;;;5045349;28;20074;-45
2021/07/21 16:29:31;;;;;;;31.67;6.93;;;;;;;;;;5048440;28;20539;-46
2021/07/21 16:31:58;;;;;;;32.63;7.05;;;;;;;;;;5046520;28;20060;-48
2021/07/21 16:34:25;;;;;;;38.45;6.75;;;;;;;;;;5047517;28;20053;-45
2021/07/21 16:36:52;;;;;;;36.67;7.68;;;;;;;;;;5049623;28;20040;-46
2021/07/21 16:39:20;;;;;;;34.28;7.32;;;;;;;;;;5045799;28;20039;-45
2021/07/21 16:41:47;;;;;;;42.60;6.45;;;;;;;;;;5040635;28;20021;-45